Time;durP1;ratioP1;P1;durP2;ratioP2;P2;SDS_P1;SDS_P2;PMS_P1;PMS_P2;Temp;Humidity;BMP_temperature;BMP_pressure;BME280_temperature;BME280_humidity;BME280_pressure;Samples;Min_cycle;Max_cycle;Signal;HPM_P1;HPM_P2
2023/12/05 00:01:36;;;;;;;13.60;8.20;;;;;;;;;;6277054;22;20158;-52
2023/12/05 00:04:02;;;;;;;11.83;8.00;;;;;;;;;;6276421;22;20172;-49
2023/12/05 00:06:29;;;;;;;11.67;7.73;;;;;;;;;;6276028;22;20141;-51
2023/12/05 00:08:55;;;;;;;10.03;7.03;;;;;;;;;;6269416;22;20147;-51
2023/12/05 00:11:21;;;;;;;10.43;6.80;;;;;;;;;;6268546;22;20140;-52
2023/12/05 00:13:47;;;;;;;11.57;7.47;;;;;;;;;;6267715;22;20179;-52
2023/12/05 00:16:15;;;;;;;11.40;7.47;;;;;;;;;;6270616;22;20168;-53
2023/12/05 00:18:44;;;;;;;12.77;7.73;;;;;;;;;;6275376;22;20124;-55
2023/12/05 00:21:24;;;;;;;11.67;7.27;;;;;;;;;;6273796;22;20144;-53
2023/12/05 00:23:56;;;;;;;9.97;6.83;;;;;;;;;;6274595;22;20212;-55
2023/12/05 00:26:23;;;;;;;11.47;7.23;;;;;;;;;;6274992;22;20140;-52
2023/12/05 00:28:49;;;;;;;11.60;7.53;;;;;;;;;;6275429;22;20145;-54
2023/12/05 00:31:15;;;;;;;10.57;7.30;;;;;;;;;;6275804;22;20194;-51
2023/12/05 00:33:41;;;;;;;11.47;7.60;;;;;;;;;;6277499;22;20531;-51
2023/12/05 00:36:07;;;;;;;12.10;7.67;;;;;;;;;;6307635;22;20166;-51
2023/12/05 00:38:33;;;;;;;10.20;6.83;;;;;;;;;;6308266;22;20147;-56
2023/12/05 00:41:00;;;;;;;11.87;7.67;;;;;;;;;;6307817;22;20139;-53
2023/12/05 00:43:26;;;;;;;10.50;6.93;;;;;;;;;;6280966;22;20163;-50
2023/12/05 00:45:52;;;;;;;9.57;6.30;;;;;;;;;;6282179;22;20131;-54
2023/12/05 00:48:19;;;;;;;8.80;6.47;;;;;;;;;;6307909;22;20139;-54
2023/12/05 00:50:45;;;;;;;11.10;7.57;;;;;;;;;;6307747;22;20124;-55
2023/12/05 00:53:11;;;;;;;11.27;7.33;;;;;;;;;;6282108;22;20194;-53
2023/12/05 00:55:37;;;;;;;11.63;7.63;;;;;;;;;;6282463;22;20551;-53
2023/12/05 00:58:03;;;;;;;12.13;7.97;;;;;;;;;;6309072;22;20127;-53
2023/12/05 01:00:36;;;;;;;11.87;7.17;;;;;;;;;;6282137;22;20525;-54
2023/12/05 01:03:02;;;;;;;11.30;8.10;;;;;;;;;;6308654;22;20128;-52
2023/12/05 01:05:28;;;;;;;12.10;7.33;;;;;;;;;;6281745;22;20143;-51
2023/12/05 01:07:54;;;;;;;11.57;7.80;;;;;;;;;;6283020;22;20209;-54
2023/12/05 01:10:20;;;;;;;11.67;8.07;;;;;;;;;;6282396;22;20131;-53
2023/12/05 01:12:46;;;;;;;12.57;7.23;;;;;;;;;;6308705;22;20120;-53
2023/12/05 01:15:12;;;;;;;11.13;6.87;;;;;;;;;;6281628;22;20132;-54
2023/12/05 01:17:38;;;;;;;11.37;7.77;;;;;;;;;;6282760;22;20192;-53
2023/12/05 01:20:11;;;;;;;12.57;8.20;;;;;;;;;;6282422;22;20135;-53
2023/12/05 01:22:38;;;;;;;11.47;7.87;;;;;;;;;;6281703;22;20155;-52
2023/12/05 01:25:08;;;;;;;11.30;7.30;;;;;;;;;;6282121;22;20655;-48
2023/12/05 01:27:34;;;;;;;15.03;8.07;;;;;;;;;;6308188;22;20124;-52
2023/12/05 01:30:00;;;;;;;12.23;8.57;;;;;;;;;;6281250;22;20136;-54
2023/12/05 01:32:26;;;;;;;11.37;8.30;;;;;;;;;;6282478;22;20139;-52
2023/12/05 01:34:52;;;;;;;10.57;7.33;;;;;;;;;;6276933;22;20203;-48
2023/12/05 01:37:18;;;;;;;13.23;7.87;;;;;;;;;;6276417;22;20157;-55
2023/12/05 01:39:44;;;;;;;12.70;7.83;;;;;;;;;;6275753;22;20401;-52
2023/12/05 01:42:10;;;;;;;11.47;7.87;;;;;;;;;;6276372;22;20144;-52
2023/12/05 01:44:36;;;;;;;11.53;7.93;;;;;;;;;;6277231;22;20659;-53
2023/12/05 01:47:03;;;;;;;9.93;7.03;;;;;;;;;;6275484;22;20140;-50
2023/12/05 01:49:33;;;;;;;11.83;7.20;;;;;;;;;;6276248;22;20145;-53
2023/12/05 01:51:59;;;;;;;11.43;7.50;;;;;;;;;;6273241;22;20163;-50
2023/12/05 01:54:27;;;;;;;11.47;7.60;;;;;;;;;;6270575;22;20159;-53
2023/12/05 01:56:55;;;;;;;9.37;7.03;;;;;;;;;;6276817;22;20163;-51
2023/12/05 01:59:21;;;;;;;12.30;7.70;;;;;;;;;;6275723;22;20159;-52
2023/12/05 02:01:50;;;;;;;10.50;7.47;;;;;;;;;;6276435;22;20148;-52
2023/12/05 02:04:16;;;;;;;12.70;7.57;;;;;;;;;;6275886;22;20186;-50
2023/12/05 02:06:43;;;;;;;10.03;6.80;;;;;;;;;;6276723;22;22019;-54
2023/12/05 02:09:10;;;;;;;8.83;7.03;;;;;;;;;;6277765;22;20151;-50
2023/12/05 02:11:37;;;;;;;13.03;8.60;;;;;;;;;;6276898;22;20186;-52
2023/12/05 02:14:05;;;;;;;11.17;7.70;;;;;;;;;;6276901;22;20189;-54
2023/12/05 02:16:30;;;;;;;12.43;8.50;;;;;;;;;;6278485;22;20216;-54
2023/12/05 02:18:59;;;;;;;14.33;7.93;;;;;;;;;;6277233;22;20140;-52
2023/12/05 02:21:28;;;;;;;13.80;8.60;;;;;;;;;;6276664;22;20167;-51
2023/12/05 02:24:11;;;;;;;12.03;8.17;;;;;;;;;;6277515;22;20160;-53
2023/12/05 02:26:47;;;;;;;13.63;8.13;;;;;;;;;;6279231;22;20163;-56
2023/12/05 02:29:13;;;;;;;12.23;9.07;;;;;;;;;;6278625;22;20207;-55
2023/12/05 02:31:39;;;;;;;12.13;7.87;;;;;;;;;;6278706;22;20151;-53
2023/12/05 02:34:05;;;;;;;13.53;8.10;;;;;;;;;;6284971;22;20206;-54
2023/12/05 02:36:31;;;;;;;11.87;8.67;;;;;;;;;;6283174;22;20201;-52
2023/12/05 02:38:57;;;;;;;13.07;8.67;;;;;;;;;;6309471;22;20123;-49
2023/12/05 02:41:25;;;;;;;12.57;7.80;;;;;;;;;;6310070;22;20124;-53
2023/12/05 02:43:59;;;;;;;11.10;8.43;;;;;;;;;;6309247;22;20200;-51
2023/12/05 02:46:33;;;;;;;13.77;8.23;;;;;;;;;;6283815;22;20398;-49
2023/12/05 02:49:00;;;;;;;12.47;8.97;;;;;;;;;;6284149;22;20139;-52
2023/12/05 02:51:26;;;;;;;12.43;7.97;;;;;;;;;;6283831;22;20384;-53
2023/12/05 02:53:52;;;;;;;14.23;9.33;;;;;;;;;;6283855;22;20139;-55
2023/12/05 02:56:18;;;;;;;14.07;9.13;;;;;;;;;;6310187;22;20466;-49
2023/12/05 02:58:44;;;;;;;12.03;7.67;;;;;;;;;;6282753;22;20178;-54
2023/12/05 03:01:11;;;;;;;12.30;8.37;;;;;;;;;;6308713;22;20755;-50
2023/12/05 03:03:37;;;;;;;13.67;9.00;;;;;;;;;;6282242;22;20167;-51
2023/12/05 03:06:03;;;;;;;15.63;10.17;;;;;;;;;;6282753;22;20132;-48
2023/12/05 03:08:29;;;;;;;15.13;9.83;;;;;;;;;;6281736;22;20183;-51
2023/12/05 03:10:55;;;;;;;14.10;9.10;;;;;;;;;;6308807;22;20154;-47
2023/12/05 03:13:21;;;;;;;13.93;9.57;;;;;;;;;;6309305;22;20330;-48
2023/12/05 03:15:47;;;;;;;15.33;9.93;;;;;;;;;;6281389;22;20146;-55
2023/12/05 03:18:13;;;;;;;16.23;9.57;;;;;;;;;;6309038;22;20135;-50
2023/12/05 03:20:42;;;;;;;12.67;9.17;;;;;;;;;;6281788;22;20265;-51
2023/12/05 03:23:08;;;;;;;17.03;10.87;;;;;;;;;;6308122;22;20232;-54
2023/12/05 03:25:34;;;;;;;13.50;9.20;;;;;;;;;;6280993;22;20135;-51
2023/12/05 03:28:00;;;;;;;15.53;9.63;;;;;;;;;;6281254;22;20210;-55
2023/12/05 03:30:26;;;;;;;14.50;10.07;;;;;;;;;;6281907;22;20139;-50
2023/12/05 03:32:52;;;;;;;14.70;10.13;;;;;;;;;;6281947;22;20136;-54
2023/12/05 03:35:18;;;;;;;15.10;10.30;;;;;;;;;;6282269;22;20219;-55
2023/12/05 03:37:44;;;;;;;16.47;10.27;;;;;;;;;;6282865;22;20242;-48
2023/12/05 03:40:10;;;;;;;16.37;11.07;;;;;;;;;;6282992;22;20143;-53
2023/12/05 03:42:36;;;;;;;16.53;9.93;;;;;;;;;;6282841;22;20143;-52
2023/12/05 03:45:02;;;;;;;16.57;9.77;;;;;;;;;;6282772;22;20167;-56
2023/12/05 03:47:28;;;;;;;16.30;10.27;;;;;;;;;;6283111;22;20474;-52
2023/12/05 03:49:54;;;;;;;16.97;10.47;;;;;;;;;;6308942;22;20510;-50
2023/12/05 03:52:22;;;;;;;15.47;10.47;;;;;;;;;;6309260;22;20503;-50
2023/12/05 03:54:48;;;;;;;16.67;10.67;;;;;;;;;;6282846;22;20181;-51
2023/12/05 03:57:14;;;;;;;18.37;10.87;;;;;;;;;;6282823;22;20144;-49
2023/12/05 03:59:40;;;;;;;19.63;11.97;;;;;;;;;;6281344;22;20143;-52
2023/12/05 04:02:06;;;;;;;17.53;10.83;;;;;;;;;;6280509;22;20166;-52
2023/12/05 04:04:32;;;;;;;18.73;11.83;;;;;;;;;;6307760;22;20612;-52
2023/12/05 04:06:58;;;;;;;18.43;10.87;;;;;;;;;;6280505;22;20159;-53
2023/12/05 04:09:24;;;;;;;18.20;11.60;;;;;;;;;;6281692;22;20135;-48
2023/12/05 04:11:50;;;;;;;14.53;9.97;;;;;;;;;;6281475;22;20136;-52
2023/12/05 04:14:16;;;;;;;16.40;9.67;;;;;;;;;;6281667;22;20144;-55
2023/12/05 04:16:42;;;;;;;20.43;11.87;;;;;;;;;;6277899;22;20151;-51
2023/12/05 04:19:08;;;;;;;21.37;13.13;;;;;;;;;;6276895;22;20147;-49
2023/12/05 04:21:34;;;;;;;17.07;11.70;;;;;;;;;;6276840;22;20273;-52
2023/12/05 04:24:00;;;;;;;17.30;11.47;;;;;;;;;;6275541;22;20181;-54
2023/12/05 04:26:27;;;;;;;17.33;11.63;;;;;;;;;;6250123;22;20143;-50
2023/12/05 04:28:53;;;;;;;19.77;12.90;;;;;;;;;;6276071;22;20148;-53
2023/12/05 04:31:19;;;;;;;19.87;12.23;;;;;;;;;;6275367;22;20147;-52
2023/12/05 04:37:01;;;;;;;17.97;10.97;;;;;;;;;;6242843;23;20179;-57
2023/12/05 04:39:27;;;;;;;18.47;10.23;;;;;;;;;;6240923;23;20211;-51
2023/12/05 04:41:53;;;;;;;19.40;12.50;;;;;;;;;;6241481;23;20148;-51
2023/12/05 04:44:20;;;;;;;18.30;10.87;;;;;;;;;;6241442;23;20168;-49
2023/12/05 04:46:46;;;;;;;17.80;11.77;;;;;;;;;;6239760;23;20163;-52
2023/12/05 04:49:12;;;;;;;18.90;12.37;;;;;;;;;;6240252;23;20508;-50
2023/12/05 04:51:38;;;;;;;18.07;11.63;;;;;;;;;;6242361;23;20121;-52
2023/12/05 04:54:04;;;;;;;19.90;11.57;;;;;;;;;;6242672;23;20422;-54
2023/12/05 04:56:30;;;;;;;17.73;10.50;;;;;;;;;;6241784;23;20467;-51
2023/12/05 04:58:56;;;;;;;20.37;12.30;;;;;;;;;;6241208;23;20156;-50
2023/12/05 05:01:22;;;;;;;21.10;12.30;;;;;;;;;;6241045;23;20155;-51
2023/12/05 05:03:48;;;;;;;20.57;12.47;;;;;;;;;;6242844;23;20165;-54
2023/12/05 05:06:14;;;;;;;16.87;11.50;;;;;;;;;;6242254;23;20231;-51
2023/12/05 05:08:40;;;;;;;18.53;11.97;;;;;;;;;;6238518;23;20149;-53
2023/12/05 05:11:06;;;;;;;25.77;14.43;;;;;;;;;;6238848;23;20156;-52
2023/12/05 05:13:33;;;;;;;20.10;12.63;;;;;;;;;;6238922;23;20203;-53
2023/12/05 05:15:59;;;;;;;19.67;12.57;;;;;;;;;;6239423;23;20141;-54
2023/12/05 05:18:25;;;;;;;24.23;13.63;;;;;;;;;;6243114;23;20129;-50
2023/12/05 05:20:51;;;;;;;20.47;13.50;;;;;;;;;;6243989;23;20163;-50
2023/12/05 05:23:17;;;;;;;25.30;12.90;;;;;;;;;;6245107;23;20160;-53
2023/12/05 05:25:43;;;;;;;21.30;13.93;;;;;;;;;;6245591;23;20189;-50
2023/12/05 05:28:09;;;;;;;22.40;13.60;;;;;;;;;;6245107;23;20206;-49
2023/12/05 05:30:35;;;;;;;20.87;13.07;;;;;;;;;;6247222;23;20129;-48
2023/12/05 05:33:01;;;;;;;23.20;14.03;;;;;;;;;;6246282;23;20145;-48
2023/12/05 05:35:27;;;;;;;23.70;13.17;;;;;;;;;;6256276;22;20223;-53
2023/12/05 05:37:53;;;;;;;23.20;14.93;;;;;;;;;;6276559;22;20151;-52
2023/12/05 05:40:19;;;;;;;20.83;13.10;;;;;;;;;;6276182;22;20425;-53
2023/12/05 05:42:45;;;;;;;21.73;12.43;;;;;;;;;;6274859;22;20136;-52
2023/12/05 05:45:12;;;;;;;22.23;13.67;;;;;;;;;;6276198;22;20187;-53
2023/12/05 05:47:38;;;;;;;22.80;14.30;;;;;;;;;;6275802;22;20171;-52
2023/12/05 05:50:05;;;;;;;21.43;14.07;;;;;;;;;;6274893;22;20609;-53
2023/12/05 05:52:31;;;;;;;24.77;14.07;;;;;;;;;;6276658;22;20542;-55
2023/12/05 05:54:57;;;;;;;21.77;13.30;;;;;;;;;;6275748;22;20238;-55
2023/12/05 05:57:24;;;;;;;20.67;12.80;;;;;;;;;;6276599;22;20128;-50
2023/12/05 05:59:50;;;;;;;19.60;12.37;;;;;;;;;;6276127;22;20144;-55
2023/12/05 06:02:16;;;;;;;21.97;13.20;;;;;;;;;;6275253;22;20509;-51
2023/12/05 06:04:42;;;;;;;21.83;13.17;;;;;;;;;;6273274;22;20167;-53
2023/12/05 06:07:08;;;;;;;25.40;15.17;;;;;;;;;;6273403;22;20599;-55
2023/12/05 06:09:34;;;;;;;21.23;14.17;;;;;;;;;;6273472;22;20125;-54
2023/12/05 06:12:02;;;;;;;24.67;13.77;;;;;;;;;;6272670;22;20140;-54
2023/12/05 06:14:28;;;;;;;23.30;13.40;;;;;;;;;;6271993;22;20544;-53
2023/12/05 06:16:54;;;;;;;21.80;14.00;;;;;;;;;;6270730;22;20235;-52
2023/12/05 06:19:21;;;;;;;25.40;14.80;;;;;;;;;;6275550;22;20124;-50
2023/12/05 06:21:47;;;;;;;25.90;14.00;;;;;;;;;;6275056;22;20160;-50
2023/12/05 06:24:13;;;;;;;26.20;16.13;;;;;;;;;;6271457;22;20697;-55
2023/12/05 06:26:39;;;;;;;24.10;14.60;;;;;;;;;;6271126;22;20143;-52
2023/12/05 06:29:05;;;;;;;21.67;13.80;;;;;;;;;;6272816;22;20133;-54
2023/12/05 06:31:33;;;;;;;21.90;13.30;;;;;;;;;;6271593;22;20510;-55
2023/12/05 06:33:59;;;;;;;23.87;15.30;;;;;;;;;;6273875;22;20589;-53
2023/12/05 06:36:25;;;;;;;23.73;14.17;;;;;;;;;;6271768;22;20195;-53
2023/12/05 06:38:51;;;;;;;22.13;14.00;;;;;;;;;;6271985;22;20133;-54
2023/12/05 06:41:17;;;;;;;25.43;14.97;;;;;;;;;;6272451;22;20234;-49
2023/12/05 06:43:46;;;;;;;25.53;14.83;;;;;;;;;;6273008;22;20199;-49
2023/12/05 06:46:12;;;;;;;25.17;15.00;;;;;;;;;;6274397;22;20227;-51
2023/12/05 06:48:38;;;;;;;22.43;14.43;;;;;;;;;;6274057;22;20136;-53
2023/12/05 06:51:05;;;;;;;23.63;14.70;;;;;;;;;;6273164;22;20147;-54
2023/12/05 06:53:31;;;;;;;25.37;15.20;;;;;;;;;;6274053;22;20202;-53
2023/12/05 06:55:57;;;;;;;22.60;13.17;;;;;;;;;;6274019;22;20148;-55
2023/12/05 06:58:23;;;;;;;25.77;16.00;;;;;;;;;;6273136;22;20148;-53
2023/12/05 07:00:49;;;;;;;28.97;15.60;;;;;;;;;;6273339;22;20137;-50
2023/12/05 07:03:15;;;;;;;22.23;14.13;;;;;;;;;;6270828;22;20639;-51
2023/12/05 07:05:41;;;;;;;23.47;14.37;;;;;;;;;;6269954;22;20132;-53
2023/12/05 07:08:07;;;;;;;21.93;13.33;;;;;;;;;;6267213;22;20544;-50
2023/12/05 07:10:34;;;;;;;23.00;13.30;;;;;;;;;;6269112;22;20246;-50
2023/12/05 07:13:00;;;;;;;23.10;14.70;;;;;;;;;;6271066;22;20190;-53
2023/12/05 07:15:26;;;;;;;28.80;16.13;;;;;;;;;;6271719;22;20529;-51
2023/12/05 07:17:52;;;;;;;22.40;15.60;;;;;;;;;;6270229;22;20129;-52
2023/12/05 07:20:18;;;;;;;27.20;15.13;;;;;;;;;;6269576;22;20566;-56
2023/12/05 07:22:44;;;;;;;22.93;14.03;;;;;;;;;;6268760;22;20187;-52
2023/12/05 07:25:10;;;;;;;29.83;15.10;;;;;;;;;;6269206;22;20172;-53
2023/12/05 07:27:36;;;;;;;24.33;15.67;;;;;;;;;;6269322;22;20144;-54
2023/12/05 07:30:03;;;;;;;21.70;14.20;;;;;;;;;;6269398;22;20147;-53
2023/12/05 07:32:29;;;;;;;26.90;15.83;;;;;;;;;;6271438;22;20659;-50
2023/12/05 07:34:55;;;;;;;22.67;15.00;;;;;;;;;;6275642;22;20270;-52
2023/12/05 07:37:21;;;;;;;25.60;15.60;;;;;;;;;;6277078;22;20220;-54
2023/12/05 07:39:47;;;;;;;28.00;15.70;;;;;;;;;;6301321;22;20132;-52
2023/12/05 07:42:13;;;;;;;26.73;16.43;;;;;;;;;;6304525;22;20128;-53
2023/12/05 07:44:39;;;;;;;25.23;16.33;;;;;;;;;;6277820;22;20262;-50
2023/12/05 07:47:07;;;;;;;25.30;16.73;;;;;;;;;;6278347;22;20155;-49
2023/12/05 07:49:33;;;;;;;24.13;15.27;;;;;;;;;;6278842;22;20147;-51
2023/12/05 07:52:00;;;;;;;28.97;16.77;;;;;;;;;;6278595;22;20147;-49
2023/12/05 07:54:26;;;;;;;28.90;16.50;;;;;;;;;;6304769;22;20159;-53
2023/12/05 07:56:52;;;;;;;27.53;16.63;;;;;;;;;;6279828;22;20136;-52
2023/12/05 07:59:18;;;;;;;27.30;17.70;;;;;;;;;;6278518;22;20139;-54
2023/12/05 08:01:46;;;;;;;27.47;16.80;;;;;;;;;;6303497;22;20166;-54
2023/12/05 08:04:12;;;;;;;25.97;16.97;;;;;;;;;;6277026;22;20174;-49
2023/12/05 08:06:38;;;;;;;27.90;16.67;;;;;;;;;;6277328;22;20135;-52
2023/12/05 08:09:04;;;;;;;25.03;16.00;;;;;;;;;;6277624;22;20166;-50
2023/12/05 08:11:30;;;;;;;28.67;17.30;;;;;;;;;;6275859;22;20140;-52
2023/12/05 08:13:56;;;;;;;28.33;16.63;;;;;;;;;;6275221;22;20171;-56
2023/12/05 08:16:22;;;;;;;28.30;16.80;;;;;;;;;;6276430;22;20218;-51
2023/12/05 08:18:49;;;;;;;27.47;16.87;;;;;;;;;;6277081;22;20144;-53
2023/12/05 08:21:17;;;;;;;23.53;15.67;;;;;;;;;;6277431;22;20143;-52
2023/12/05 08:23:43;;;;;;;26.13;16.70;;;;;;;;;;6303455;22;20171;-48
2023/12/05 08:26:11;;;;;;;24.80;15.37;;;;;;;;;;6277263;22;20147;-55
2023/12/05 08:28:38;;;;;;;27.30;17.07;;;;;;;;;;6277449;22;20672;-54
2023/12/05 08:31:04;;;;;;;28.80;17.57;;;;;;;;;;6277339;22;20140;-52
2023/12/05 08:33:33;;;;;;;27.23;17.30;;;;;;;;;;6277486;22;20150;-53
2023/12/05 08:35:59;;;;;;;27.90;16.10;;;;;;;;;;6276285;22;20682;-57
2023/12/05 08:38:25;;;;;;;25.67;15.33;;;;;;;;;;6277630;22;20156;-53
2023/12/05 08:40:51;;;;;;;26.57;17.67;;;;;;;;;;6278240;22;20140;-53
2023/12/05 08:43:18;;;;;;;28.30;17.13;;;;;;;;;;6278847;22;20226;-53
2023/12/05 08:45:44;;;;;;;23.53;16.27;;;;;;;;;;6278330;22;20153;-54
2023/12/05 08:48:10;;;;;;;25.33;15.40;;;;;;;;;;6278588;22;20139;-54
2023/12/05 08:50:36;;;;;;;23.20;14.63;;;;;;;;;;6277892;22;20139;-50
2023/12/05 08:53:02;;;;;;;29.13;17.60;;;;;;;;;;6277628;22;20230;-54
2023/12/05 08:55:29;;;;;;;27.57;17.77;;;;;;;;;;6303962;22;20538;-54
2023/12/05 08:57:57;;;;;;;27.90;16.63;;;;;;;;;;6278163;22;20481;-54
2023/12/05 09:00:23;;;;;;;27.67;16.30;;;;;;;;;;6279727;22;20136;-54
2023/12/05 09:02:51;;;;;;;27.80;16.70;;;;;;;;;;6279496;22;20140;-53
2023/12/05 09:05:18;;;;;;;27.83;17.27;;;;;;;;;;6306187;22;20160;-53
2023/12/05 09:07:45;;;;;;;27.27;17.63;;;;;;;;;;6278247;22;20160;-55
2023/12/05 09:10:11;;;;;;;30.30;17.60;;;;;;;;;;6279896;22;20143;-50
2023/12/05 09:12:38;;;;;;;24.93;16.30;;;;;;;;;;6277477;22;20139;-51
2023/12/05 09:15:04;;;;;;;28.03;17.13;;;;;;;;;;6277339;22;20144;-55
2023/12/05 09:17:32;;;;;;;27.30;16.87;;;;;;;;;;6278048;22;20245;-51
2023/12/05 09:19:58;;;;;;;28.30;16.63;;;;;;;;;;6277478;22;20182;-55
2023/12/05 09:22:24;;;;;;;27.63;16.60;;;;;;;;;;6277753;22;20152;-54
2023/12/05 09:24:50;;;;;;;28.30;18.40;;;;;;;;;;6276986;22;20169;-55
2023/12/05 09:27:16;;;;;;;25.90;16.63;;;;;;;;;;6277005;22;20158;-52
2023/12/05 09:29:42;;;;;;;27.43;17.13;;;;;;;;;;6275553;22;20192;-52
2023/12/05 09:32:08;;;;;;;27.77;18.13;;;;;;;;;;6277563;22;20441;-56
2023/12/05 09:34:34;;;;;;;29.40;17.40;;;;;;;;;;6277613;22;20208;-54
2023/12/05 09:37:00;;;;;;;30.87;18.47;;;;;;;;;;6276618;22;20222;-55
2023/12/05 09:39:26;;;;;;;25.47;17.60;;;;;;;;;;6277570;22;20171;-54
2023/12/05 09:41:53;;;;;;;28.10;18.30;;;;;;;;;;6277891;22;20150;-54
2023/12/05 09:44:24;;;;;;;28.93;17.90;;;;;;;;;;6277225;22;20159;-56
2023/12/05 09:46:57;;;;;;;25.67;17.90;;;;;;;;;;6277929;22;20555;-50
2023/12/05 09:49:28;;;;;;;29.23;18.20;;;;;;;;;;6304475;22;20124;-54
2023/12/05 09:51:54;;;;;;;28.73;18.43;;;;;;;;;;6276192;22;20162;-54
2023/12/05 09:54:20;;;;;;;26.60;16.33;;;;;;;;;;6274708;22;20644;-51
2023/12/05 09:56:48;;;;;;;29.00;17.90;;;;;;;;;;6275178;22;20167;-52
2023/12/05 09:59:20;;;;;;;27.83;17.17;;;;;;;;;;6303941;22;20128;-56
2023/12/05 10:01:47;;;;;;;31.37;18.63;;;;;;;;;;6251093;22;20151;-56
2023/12/05 10:04:18;;;;;;;26.70;17.67;;;;;;;;;;6301412;22;20163;-56
2023/12/05 10:06:47;;;;;;;24.13;16.43;;;;;;;;;;6301623;22;20181;-52
2023/12/05 10:09:15;;;;;;;27.20;17.30;;;;;;;;;;6303848;22;20124;-49
2023/12/05 10:11:43;;;;;;;29.00;18.10;;;;;;;;;;6301749;22;20150;-54
2023/12/05 10:14:09;;;;;;;27.97;18.07;;;;;;;;;;6274195;22;20139;-57
2023/12/05 10:16:36;;;;;;;24.70;16.87;;;;;;;;;;6275861;22;20144;-56
2023/12/05 10:19:02;;;;;;;26.30;17.30;;;;;;;;;;6277178;22;20196;-51
2023/12/05 10:21:28;;;;;;;29.50;18.23;;;;;;;;;;6304385;22;20138;-53
2023/12/05 10:23:56;;;;;;;28.90;17.73;;;;;;;;;;6276921;22;20159;-53
2023/12/05 10:26:23;;;;;;;27.87;17.77;;;;;;;;;;6277276;22;20132;-56
2023/12/05 10:28:51;;;;;;;25.70;17.33;;;;;;;;;;6278254;22;20138;-53
2023/12/05 10:31:20;;;;;;;27.63;18.17;;;;;;;;;;6280058;22;20139;-53
2023/12/05 10:33:46;;;;;;;31.10;18.27;;;;;;;;;;6278018;22;20598;-56
2023/12/05 10:36:12;;;;;;;26.33;17.77;;;;;;;;;;6304906;22;20188;-53
2023/12/05 10:38:39;;;;;;;23.33;15.63;;;;;;;;;;6278067;22;20170;-56
2023/12/05 10:41:05;;;;;;;27.93;17.67;;;;;;;;;;6278383;22;20178;-55
2023/12/05 10:43:33;;;;;;;27.37;17.70;;;;;;;;;;6275677;22;20175;-56
2023/12/05 10:46:05;;;;;;;29.00;18.60;;;;;;;;;;6276084;22;20500;-53
2023/12/05 10:48:33;;;;;;;29.40;19.33;;;;;;;;;;6275892;22;20140;-51
2023/12/05 10:51:00;;;;;;;29.07;18.73;;;;;;;;;;6276779;22;20149;-56
2023/12/05 10:53:27;;;;;;;25.80;17.70;;;;;;;;;;6276686;22;20155;-54
2023/12/05 10:55:53;;;;;;;31.43;17.47;;;;;;;;;;6276445;22;20223;-54
2023/12/05 10:58:19;;;;;;;25.83;17.23;;;;;;;;;;6305502;22;20135;-53
2023/12/05 11:00:47;;;;;;;27.57;17.73;;;;;;;;;;6278651;22;20139;-54
2023/12/05 11:03:14;;;;;;;27.73;17.20;;;;;;;;;;6278964;22;20142;-53
2023/12/05 11:05:40;;;;;;;27.27;18.53;;;;;;;;;;6277823;22;20163;-52
2023/12/05 11:08:06;;;;;;;24.90;17.37;;;;;;;;;;6276134;22;20172;-51
2023/12/05 11:10:34;;;;;;;26.70;17.27;;;;;;;;;;6275987;22;20250;-56
2023/12/05 11:13:01;;;;;;;26.83;17.33;;;;;;;;;;6302796;22;20120;-53
2023/12/05 11:15:48;;;;;;;25.37;17.63;;;;;;;;;;6276712;22;20136;-56
2023/12/05 11:18:42;;;;;;;27.03;17.67;;;;;;;;;;6275794;22;20213;-55
2023/12/05 11:21:27;;;;;;;25.17;17.13;;;;;;;;;;6271503;22;20556;-54
2023/12/05 11:24:12;;;;;;;25.13;17.03;;;;;;;;;;6301548;22;20503;-55
2023/12/05 11:26:41;;;;;;;27.93;16.60;;;;;;;;;;6275837;22;20135;-54
2023/12/05 11:29:27;;;;;;;26.20;17.70;;;;;;;;;;6273124;22;20140;-50
2023/12/05 11:32:02;;;;;;;25.97;17.63;;;;;;;;;;6300136;22;20124;-52
2023/12/05 11:34:28;;;;;;;25.60;16.73;;;;;;;;;;6271830;22;20139;-54
2023/12/05 11:37:13;;;;;;;27.33;17.87;;;;;;;;;;6297650;22;20179;-53
2023/12/05 11:39:39;;;;;;;29.07;17.07;;;;;;;;;;6272804;22;20171;-53
2023/12/05 11:42:09;;;;;;;25.67;17.03;;;;;;;;;;6272566;22;20139;-52
2023/12/05 11:44:39;;;;;;;23.20;15.80;;;;;;;;;;6276284;22;20179;-50
2023/12/05 11:47:24;;;;;;;24.37;16.27;;;;;;;;;;6302650;22;20162;-50
2023/12/05 11:49:56;;;;;;;25.90;16.33;;;;;;;;;;6275363;22;20173;-54
2023/12/05 11:52:23;;;;;;;23.70;16.07;;;;;;;;;;6275483;22;20159;-54
2023/12/05 11:54:52;;;;;;;26.60;17.10;;;;;;;;;;6275368;22;20151;-52
2023/12/05 11:57:20;;;;;;;22.63;16.73;;;;;;;;;;6276083;22;20553;-54
2023/12/05 11:59:48;;;;;;;23.73;15.20;;;;;;;;;;6301192;22;20144;-54
2023/12/05 12:02:19;;;;;;;25.40;17.07;;;;;;;;;;6299867;22;20136;-53
2023/12/05 12:04:45;;;;;;;24.63;17.10;;;;;;;;;;6274056;22;20171;-51
2023/12/05 12:07:12;;;;;;;27.90;17.23;;;;;;;;;;6301078;22;20707;-53
2023/12/05 12:09:41;;;;;;;25.87;16.77;;;;;;;;;;6302368;22;20424;-54
2023/12/05 12:12:08;;;;;;;26.63;17.20;;;;;;;;;;6276236;22;20140;-49
2023/12/05 12:14:35;;;;;;;25.93;17.50;;;;;;;;;;6275844;22;20204;-55
2023/12/05 12:17:04;;;;;;;26.03;16.53;;;;;;;;;;6275331;22;20151;-50
2023/12/05 12:19:32;;;;;;;29.90;15.87;;;;;;;;;;6276148;22;20140;-53
2023/12/05 12:21:58;;;;;;;24.93;16.53;;;;;;;;;;6274718;22;20157;-50
2023/12/05 12:24:24;;;;;;;26.53;16.63;;;;;;;;;;6303365;22;20228;-51
2023/12/05 12:26:53;;;;;;;22.67;15.70;;;;;;;;;;6278465;22;20505;-50
2023/12/05 12:29:19;;;;;;;22.53;16.33;;;;;;;;;;6278291;22;20131;-51
2023/12/05 12:31:46;;;;;;;23.07;15.87;;;;;;;;;;6275752;22;20158;-56
2023/12/05 12:34:33;;;;;;;23.10;15.63;;;;;;;;;;6304250;22;20138;-53
2023/12/05 12:37:01;;;;;;;28.13;17.47;;;;;;;;;;6271963;22;20192;-54
2023/12/05 12:39:27;;;;;;;24.23;16.67;;;;;;;;;;6274342;22;20164;-52
2023/12/05 12:41:58;;;;;;;24.70;16.27;;;;;;;;;;6272708;22;20175;-54
2023/12/05 12:44:25;;;;;;;23.80;15.77;;;;;;;;;;6272709;22;20168;-56
2023/12/05 12:46:53;;;;;;;25.53;15.33;;;;;;;;;;6274115;22;20124;-53
2023/12/05 12:49:19;;;;;;;25.77;16.50;;;;;;;;;;6273892;22;20146;-53
2023/12/05 12:51:45;;;;;;;25.30;16.40;;;;;;;;;;6273614;22;20144;-53
2023/12/05 12:54:11;;;;;;;25.23;15.67;;;;;;;;;;6272184;22;20144;-54
2023/12/05 12:56:41;;;;;;;27.83;17.37;;;;;;;;;;6272259;22;20136;-53
2023/12/05 12:59:10;;;;;;;25.30;15.73;;;;;;;;;;6270416;22;20175;-54
2023/12/05 13:01:38;;;;;;;23.03;15.30;;;;;;;;;;6268353;22;20159;-56
2023/12/05 13:04:13;;;;;;;25.03;16.70;;;;;;;;;;6268475;22;20156;-59
2023/12/05 13:06:40;;;;;;;24.03;16.17;;;;;;;;;;6266889;22;20144;-56
2023/12/05 13:09:11;;;;;;;28.53;17.07;;;;;;;;;;6264588;22;20145;-50
2023/12/05 13:11:38;;;;;;;26.53;16.93;;;;;;;;;;6266760;22;20125;-55
2023/12/05 13:14:11;;;;;;;23.93;16.93;;;;;;;;;;6266170;22;20129;-52
2023/12/05 13:16:41;;;;;;;25.37;16.03;;;;;;;;;;6267485;22;20140;-52
2023/12/05 13:19:19;;;;;;;26.80;16.57;;;;;;;;;;6270342;22;20170;-54
2023/12/05 13:21:45;;;;;;;22.90;15.73;;;;;;;;;;6244907;22;20167;-56
2023/12/05 13:24:11;;;;;;;25.17;16.53;;;;;;;;;;6269997;22;20168;-54
2023/12/05 13:26:37;;;;;;;24.83;16.47;;;;;;;;;;6269604;22;20221;-54
2023/12/05 13:29:03;;;;;;;25.60;16.03;;;;;;;;;;6270791;22;20148;-56
2023/12/05 13:31:32;;;;;;;21.83;15.07;;;;;;;;;;6270353;22;20135;-52
2023/12/05 13:33:59;;;;;;;22.30;16.17;;;;;;;;;;6269458;22;20226;-51
2023/12/05 13:36:25;;;;;;;24.13;16.83;;;;;;;;;;6267578;22;20762;-49
2023/12/05 13:38:53;;;;;;;27.43;17.87;;;;;;;;;;6268550;22;20140;-49
2023/12/05 13:41:19;;;;;;;22.93;15.83;;;;;;;;;;6269552;22;20462;-53
2023/12/05 13:43:45;;;;;;;22.37;15.53;;;;;;;;;;6270319;22;20725;-54
2023/12/05 13:46:14;;;;;;;23.50;16.70;;;;;;;;;;6269835;22;20219;-53
2023/12/05 13:48:40;;;;;;;26.20;17.00;;;;;;;;;;6272143;22;20136;-54
2023/12/05 13:51:08;;;;;;;21.63;14.90;;;;;;;;;;6270685;22;20171;-53
2023/12/05 13:53:34;;;;;;;22.97;15.47;;;;;;;;;;6271310;22;20541;-51
2023/12/05 13:56:01;;;;;;;20.57;14.70;;;;;;;;;;6271988;22;20134;-55
2023/12/05 13:58:28;;;;;;;25.93;16.87;;;;;;;;;;6245938;22;20133;-51
2023/12/05 14:00:54;;;;;;;23.20;15.13;;;;;;;;;;6271164;22;20497;-55
2023/12/05 14:03:20;;;;;;;22.57;15.37;;;;;;;;;;6270342;22;20136;-54
2023/12/05 14:05:46;;;;;;;23.47;15.13;;;;;;;;;;6271399;22;20152;-54
2023/12/05 14:08:12;;;;;;;22.20;14.83;;;;;;;;;;6266201;22;20201;-51
2023/12/05 14:10:39;;;;;;;21.90;15.10;;;;;;;;;;6264493;22;20172;-52
2023/12/05 14:13:05;;;;;;;20.73;14.80;;;;;;;;;;6264173;22;20144;-55
2023/12/05 14:15:31;;;;;;;24.40;16.00;;;;;;;;;;6264299;22;20135;-54
2023/12/05 14:17:57;;;;;;;22.93;15.63;;;;;;;;;;6270666;22;20175;-51
2023/12/05 14:20:23;;;;;;;20.77;14.67;;;;;;;;;;6271385;22;20140;-51
2023/12/05 14:22:50;;;;;;;22.43;15.53;;;;;;;;;;6269448;22;20160;-52
2023/12/05 14:25:16;;;;;;;21.07;14.63;;;;;;;;;;6269607;22;20160;-49